createdAt,value
2016-08-11T00:00:23.264Z,7.48
2016-08-11T00:01:23.447Z,7.33
2016-08-11T00:02:25.043Z,7.02
2016-08-11T00:03:23.171Z,7.1
2016-08-11T00:04:22.795Z,7.31
2016-08-11T00:05:22.873Z,7.31
2016-08-11T00:06:24.449Z,7.29
2016-08-11T00:07:23.213Z,7.32
2016-08-11T00:08:24.856Z,7.35
2016-08-11T00:09:24.604Z,7.32
2016-08-11T00:10:23.021Z,7.33
2016-08-11T00:11:24.345Z,7.33
2016-08-11T00:12:24.634Z,7.35
2016-08-11T00:14:23.400Z,7.35
2016-08-11T00:15:24.190Z,7.21
2016-08-11T00:16:23.751Z,7.18
2016-08-11T00:17:24.377Z,7.13
2016-08-11T00:18:23.631Z,7.06
2016-08-11T00:19:24.506Z,6.97
2016-08-11T00:20:24.868Z,7.24
2016-08-11T00:21:23.910Z,7.23
2016-08-11T00:22:24.522Z,7.14
2016-08-11T00:23:23.567Z,7.06
2016-08-11T00:24:25.672Z,7.07
2016-08-11T00:25:25.153Z,7.18
2016-08-11T00:26:23.892Z,7.24
2016-08-11T00:27:23.380Z,7.28
2016-08-11T00:28:23.814Z,7.29
2016-08-11T00:29:23.229Z,7.24
2016-08-11T00:30:23.049Z,7.18
2016-08-11T00:31:24.106Z,7.36
2016-08-11T00:32:23.783Z,7.21
2016-08-11T00:33:24.022Z,7.32
2016-08-11T00:34:23.367Z,7.29
2016-08-11T00:35:23.324Z,7.31
2016-08-11T00:36:25.604Z,7.31
2016-08-11T00:37:23.487Z,7.31
2016-08-11T00:38:24.317Z,7.32
2016-08-11T00:39:23.584Z,7.23
2016-08-11T00:40:24.577Z,7
2016-08-11T00:41:23.799Z,6.84
2016-08-11T00:42:24.425Z,6.79
2016-08-11T00:44:23.482Z,6.54
2016-08-11T00:45:24.140Z,6.56
2016-08-11T00:46:23.932Z,6.7
2016-08-11T00:47:24.852Z,6.69
2016-08-11T00:48:24.846Z,6.69
2016-08-11T00:49:25.645Z,6.85
2016-08-11T00:50:24.216Z,6.88
2016-08-11T00:51:24.597Z,6.84
2016-08-11T00:52:24.409Z,6.82
2016-08-11T00:53:25.743Z,6.96
2016-08-11T00:54:25.572Z,6.95
2016-08-11T00:55:24.201Z,7.07
2016-08-11T00:56:24.976Z,7.15
2016-08-11T00:57:25.213Z,7.33
2016-08-11T00:59:25.765Z,7.36
2016-08-11T01:00:24.121Z,7.2
2016-08-11T01:01:23.933Z,6.79
2016-08-11T01:02:26.093Z,6.57
2016-08-11T01:03:25.606Z,6.84
2016-08-11T01:04:23.666Z,6.97
2016-08-11T01:05:26.548Z,7.03
2016-08-11T01:06:24.454Z,6.97
2016-08-11T01:07:24.609Z,6.93
2016-08-11T01:08:25.596Z,6.88
2016-08-11T01:09:24.549Z,6.74
2016-08-11T01:10:23.903Z,6.63
2016-08-11T01:11:24.826Z,6.79
2016-08-11T01:12:24.380Z,6.88
2016-08-11T01:14:25.553Z,7.03
2016-08-11T01:15:26.457Z,7.02
2016-08-11T01:16:25.012Z,6.95
2016-08-11T01:17:26.326Z,7.05
2016-08-11T01:18:26.454Z,7.14
2016-08-11T01:19:26.942Z,6.97
2016-08-11T01:20:24.271Z,6.96
2016-08-11T01:21:25.705Z,6.85
2016-08-11T01:22:24.332Z,6.95
2016-08-11T01:23:24.442Z,6.92
2016-08-11T01:24:25.355Z,7
2016-08-11T01:25:25.878Z,6.97
2016-08-11T01:26:25.782Z,6.89
2016-08-11T01:27:26.037Z,6.56
2016-08-11T01:29:25.411Z,6.79
2016-08-11T01:30:26.160Z,6.93
2016-08-11T01:31:26.176Z,6.95
2016-08-11T01:32:25.705Z,7.14
2016-08-11T01:33:24.992Z,7.18
2016-08-11T01:34:25.825Z,7.23
2016-08-11T01:35:24.475Z,7.2
2016-08-11T01:36:25.003Z,7.18
2016-08-11T01:37:26.367Z,7.35
2016-08-11T01:38:27.219Z,7.36
2016-08-11T01:39:25.800Z,7.23
2016-08-11T01:40:25.597Z,7.21
2016-08-11T01:41:25.017Z,7.2
2016-08-11T01:42:25.698Z,6.89
2016-08-11T01:44:25.089Z,7
2016-08-11T01:45:26.187Z,6.88
2016-08-11T01:46:25.820Z,6.92
2016-08-11T01:47:24.828Z,6.84
2016-08-11T01:48:26.052Z,6.87
2016-08-11T01:49:24.791Z,6.62
2016-08-11T01:50:26.422Z,6.82
2016-08-11T01:51:25.057Z,6.54
2016-08-11T01:52:24.899Z,6.48
2016-08-11T01:53:26.648Z,6.57
2016-08-11T01:54:25.464Z,6.38
2016-08-11T01:55:26.616Z,6.33
2016-08-11T01:56:24.895Z,6.33
2016-08-11T01:57:26.664Z,6.36
2016-08-11T01:58:25.742Z,6.22
2016-08-11T01:59:25.776Z,6.31
2016-08-11T02:00:25.845Z,6.45
2016-08-11T02:01:25.077Z,6.52
2016-08-11T02:02:26.857Z,6.57
2016-08-11T02:03:27.498Z,6.3
2016-08-11T02:04:26.048Z,6.12
2016-08-11T02:05:26.744Z,5.94
2016-08-11T02:06:25.074Z,6.09
2016-08-11T02:07:25.908Z,6.44
2016-08-11T02:08:27.549Z,6.35
2016-08-11T02:09:25.934Z,6.56
2016-08-11T02:10:26.356Z,6.69
2016-08-11T02:11:24.969Z,6.74
2016-08-11T02:12:26.199Z,6.67
2016-08-11T02:13:25.879Z,6.7
2016-08-11T02:14:25.924Z,6.56
2016-08-11T02:15:26.431Z,6.56
2016-08-11T02:16:25.742Z,6.57
2016-08-11T02:17:27.712Z,6.24
2016-08-11T02:18:25.804Z,5.93
2016-08-11T02:19:26.727Z,5.73
2016-08-11T02:20:25.636Z,5.79
2016-08-11T02:21:26.918Z,5.73
2016-08-11T02:22:26.706Z,5.87
2016-08-11T02:23:26.638Z,6.02
2016-08-11T02:24:25.632Z,6.16
2016-08-11T02:25:26.849Z,6.02
2016-08-11T02:26:25.709Z,6.22
2016-08-11T02:27:26.689Z,6.31
2016-08-11T02:28:25.844Z,6.46
2016-08-11T02:29:26.079Z,6.28
2016-08-11T02:30:26.370Z,6.35
2016-08-11T02:31:26.225Z,6.35
2016-08-11T02:32:25.845Z,6.12
2016-08-11T02:33:26.538Z,6.16
2016-08-11T02:34:25.838Z,6.14
2016-08-11T02:35:26.784Z,6.22
2016-08-11T02:36:26.101Z,6.39
2016-08-11T02:37:27.679Z,6.2
2016-08-11T02:38:26.521Z,6.12
2016-08-11T02:39:26.447Z,6.22
2016-08-11T02:40:25.703Z,6.22
2016-08-11T02:41:26.911Z,6.28
2016-08-11T02:42:26.668Z,6.35
2016-08-11T02:43:26.032Z,6.26
2016-08-11T02:44:26.155Z,6.36
2016-08-11T02:45:26.407Z,6.41
2016-08-11T02:46:27.146Z,6.28
2016-08-11T02:47:26.991Z,6.38
2016-08-11T02:48:28.517Z,6.17
2016-08-11T02:49:27.996Z,6.19
2016-08-11T02:50:28.025Z,6.2
2016-08-11T02:51:25.967Z,6.16
2016-08-11T02:52:27.101Z,6.28
2016-08-11T02:53:27.751Z,6.17
2016-08-11T02:54:25.818Z,6.28
2016-08-11T02:55:27.284Z,6.36
2016-08-11T02:56:27.332Z,6.35
2016-08-11T02:57:27.501Z,6.26
2016-08-11T02:58:26.973Z,6.28
2016-08-11T02:59:27.290Z,6.3
2016-08-11T03:00:27.778Z,6.19
2016-08-11T03:01:26.044Z,6.28
2016-08-11T03:02:28.950Z,6.3
2016-08-11T03:03:26.068Z,6.38
2016-08-11T03:04:26.409Z,6.3
2016-08-11T03:05:25.908Z,6.17
2016-08-11T03:06:27.504Z,6.07
2016-08-11T03:07:27.248Z,6.11
2016-08-11T03:08:26.746Z,6.2
2016-08-11T03:09:26.918Z,6.26
2016-08-11T03:10:28.616Z,6.17
2016-08-11T03:11:26.191Z,6.26
2016-08-11T03:12:27.186Z,6.27
2016-08-11T03:13:27.156Z,6.36
2016-08-11T03:14:29.230Z,6.52
2016-08-11T03:15:26.958Z,6.52
2016-08-11T03:16:28.289Z,6.52
2016-08-11T03:17:27.150Z,6.72
2016-08-11T03:18:26.593Z,6.62
2016-08-11T03:19:27.165Z,6.56
2016-08-11T03:20:27.750Z,6.54
2016-08-11T03:21:28.121Z,6.51
2016-08-11T03:22:28.075Z,6.41
2016-08-11T03:23:27.791Z,6.51
2016-08-11T03:24:26.773Z,6.42
2016-08-11T03:25:27.127Z,6.56
2016-08-11T03:26:26.482Z,6.52
2016-08-11T03:27:26.624Z,6.48
2016-08-11T03:28:27.614Z,6.66
2016-08-11T03:29:26.930Z,6.6
2016-08-11T03:30:27.147Z,6.56
2016-08-11T03:31:27.458Z,6.52
2016-08-11T03:32:27.803Z,6.44
2016-08-11T03:33:26.773Z,6.49
2016-08-11T03:34:26.675Z,6.59
2016-08-11T03:35:26.843Z,6.75
2016-08-11T03:36:28.162Z,6.72
2016-08-11T03:37:27.180Z,6.88
2016-08-11T03:38:27.443Z,6.67
2016-08-11T03:39:27.552Z,6.54
2016-08-11T03:40:26.700Z,6.52
2016-08-11T03:41:28.841Z,6.56
2016-08-11T03:42:28.102Z,6.56
2016-08-11T03:43:26.818Z,6.52
2016-08-11T03:44:28.089Z,6.56
2016-08-11T03:45:26.844Z,6.42
2016-08-11T03:46:26.638Z,6.49
2016-08-11T03:47:26.606Z,6.59
2016-08-11T03:48:27.616Z,6.24
2016-08-11T03:49:28.380Z,6.07
2016-08-11T03:50:27.570Z,6.08
2016-08-11T03:51:28.572Z,6.17
2016-08-11T03:52:27.838Z,6.22
2016-08-11T03:53:28.402Z,6.2
2016-08-11T03:54:28.398Z,6.38
2016-08-11T03:55:28.434Z,6.26
2016-08-11T03:56:27.788Z,6.2
2016-08-11T03:57:26.923Z,6.33
2016-08-11T03:58:28.860Z,6.39
2016-08-11T03:59:27.587Z,6.49
2016-08-11T04:00:27.380Z,6.46
2016-08-11T04:01:27.932Z,6.52
2016-08-11T04:02:27.789Z,6.46
2016-08-11T04:03:27.930Z,6.36
2016-08-11T04:04:30.467Z,6.26
2016-08-11T04:05:27.126Z,6.08
2016-08-11T04:06:28.108Z,6.07
2016-08-11T04:07:27.730Z,6.01
2016-08-11T04:08:27.601Z,6.22
2016-08-11T04:09:28.590Z,6.3
2016-08-11T04:10:28.564Z,6.28
2016-08-11T04:11:28.445Z,6.38
2016-08-11T04:12:28.243Z,6.38
2016-08-11T04:13:29.418Z,6.39
2016-08-11T04:14:28.572Z,6.41
2016-08-11T04:15:28.138Z,6.39
2016-08-11T04:16:29.293Z,6.41
2016-08-11T04:17:28.650Z,6.54
2016-08-11T04:18:28.609Z,6.48
2016-08-11T04:19:28.357Z,6.52
2016-08-11T04:20:27.904Z,6.44
2016-08-11T04:21:27.751Z,6.52
2016-08-11T04:22:29.349Z,6.56
2016-08-11T04:23:29.136Z,6.54
2016-08-11T04:24:29.083Z,6.63
2016-08-11T04:25:28.469Z,6.64
2016-08-11T04:26:28.812Z,6.39
2016-08-11T04:27:28.033Z,6.3
2016-08-11T04:28:27.686Z,6.33
2016-08-11T04:29:27.632Z,6.48
2016-08-11T04:30:29.243Z,6.59
2016-08-11T04:31:28.288Z,6.6
2016-08-11T04:32:28.637Z,6.59
2016-08-11T04:33:29.322Z,6.57
2016-08-11T04:34:27.533Z,6.56
2016-08-11T04:35:28.010Z,6.51
2016-08-11T04:36:29.611Z,6.54
2016-08-11T04:37:28.311Z,6.63
2016-08-11T04:38:28.127Z,6.64
2016-08-11T04:39:29.867Z,6.72
2016-08-11T04:40:29.208Z,6.79
2016-08-11T04:41:29.077Z,6.72
2016-08-11T04:42:29.047Z,6.7
2016-08-11T04:43:30.003Z,6.85
2016-08-11T04:44:29.342Z,6.72
2016-08-11T04:45:29.012Z,6.82
2016-08-11T04:46:29.126Z,6.87
2016-08-11T04:47:28.424Z,6.69
2016-08-11T04:48:28.860Z,6.82
2016-08-11T04:49:28.834Z,6.85
2016-08-11T04:50:28.583Z,6.87
2016-08-11T04:51:29.354Z,6.82
2016-08-11T04:52:30.026Z,6.7
2016-08-11T04:53:29.156Z,6.72
2016-08-11T04:54:28.557Z,6.77
2016-08-11T04:55:28.764Z,6.84
2016-08-11T04:56:28.767Z,6.82
2016-08-11T04:57:29.866Z,6.87
2016-08-11T04:58:28.924Z,6.77
2016-08-11T04:59:28.929Z,6.85
2016-08-11T05:00:29.495Z,7.06
2016-08-11T05:01:28.969Z,7.05
2016-08-11T05:02:29.641Z,6.88
2016-08-11T05:03:28.813Z,6.85
2016-08-11T05:04:28.571Z,6.92
2016-08-11T05:05:29.025Z,7
2016-08-11T05:06:28.849Z,7.05
2016-08-11T05:07:28.961Z,7.21
2016-08-11T05:08:30.064Z,7.14
2016-08-11T05:09:29.833Z,7.15
2016-08-11T05:10:29.854Z,7.25
2016-08-11T05:11:28.938Z,7.2
2016-08-11T05:12:28.727Z,7.18
2016-08-11T05:13:28.769Z,7.32
2016-08-11T05:14:29.049Z,7.29
2016-08-11T05:15:28.297Z,7.36
2016-08-11T05:16:29.072Z,7.36
2016-08-11T05:17:29.758Z,7.21
2016-08-11T05:18:29.116Z,7.31
2016-08-11T05:19:28.977Z,7.35
2016-08-11T05:20:29.510Z,7.36
2016-08-11T05:21:29.519Z,7.45
2016-08-11T05:22:28.938Z,7.61
2016-08-11T05:23:28.902Z,7.63
2016-08-11T05:24:28.768Z,7.66
2016-08-11T05:25:30.662Z,7.6
2016-08-11T05:26:29.610Z,7.69
2016-08-11T05:27:29.912Z,7.69
2016-08-11T05:28:29.193Z,7.7
2016-08-11T05:29:29.961Z,7.79
2016-08-11T05:30:29.074Z,7.73
2016-08-11T05:31:30.577Z,7.85
2016-08-11T05:32:29.988Z,7.87
2016-08-11T05:33:30.039Z,7.85
2016-08-11T05:34:30.665Z,7.91
2016-08-11T05:35:29.886Z,7.93
2016-08-11T05:36:29.887Z,8.05
2016-08-11T05:37:29.166Z,8.06
2016-08-11T05:38:30.623Z,8.05
2016-08-11T05:39:29.884Z,8.08
2016-08-11T05:40:29.437Z,8.16
2016-08-11T05:41:29.859Z,8.06
2016-08-11T05:42:30.969Z,8.13
2016-08-11T05:43:30.685Z,8.23
2016-08-11T05:44:28.984Z,8.24
2016-08-11T05:45:30.244Z,8.3
2016-08-11T05:46:29.467Z,8.36
2016-08-11T05:47:30.233Z,8.37
2016-08-11T05:48:30.857Z,8.34
2016-08-11T05:49:31.711Z,8.37
2016-08-11T05:50:30.646Z,8.37
2016-08-11T05:51:30.698Z,8.44
2016-08-11T05:52:29.386Z,8.48
2016-08-11T05:53:31.378Z,8.61
2016-08-11T05:54:30.260Z,8.63
2016-08-11T05:55:30.382Z,8.6
2016-08-11T05:56:30.192Z,8.61
2016-08-11T05:57:30.605Z,8.71
2016-08-11T05:58:29.558Z,8.79
2016-08-11T05:59:32.093Z,8.81
2016-08-11T06:00:31.898Z,8.84
2016-08-11T06:01:29.687Z,8.89
2016-08-11T06:02:30.115Z,8.94
2016-08-11T06:03:30.619Z,8.94
2016-08-11T06:04:30.092Z,8.94
2016-08-11T06:05:30.155Z,9
2016-08-11T06:06:30.477Z,9.02
2016-08-11T06:07:31.307Z,8.97
2016-08-11T06:08:30.304Z,8.95
2016-08-11T06:09:30.590Z,9.06
2016-08-11T06:10:30.732Z,9.02
2016-08-11T06:11:31.064Z,9.22
2016-08-11T06:12:31.091Z,9.18
2016-08-11T06:13:31.023Z,9.28
2016-08-11T06:14:30.608Z,9.25
2016-08-11T06:15:30.599Z,9.34
2016-08-11T06:16:30.221Z,9.36
2016-08-11T06:17:30.453Z,9.44
2016-08-11T06:18:30.964Z,9.39
2016-08-11T06:19:30.143Z,9.32
2016-08-11T06:20:29.946Z,9.37
2016-08-11T06:21:29.693Z,9.47
2016-08-11T06:22:31.758Z,9.56
2016-08-11T06:23:30.113Z,9.55
2016-08-11T06:24:30.918Z,9.72
2016-08-11T06:25:30.433Z,9.82
2016-08-11T06:26:31.333Z,9.83
2016-08-11T06:27:29.896Z,9.79
2016-08-11T06:28:30.226Z,9.84
2016-08-11T06:29:30.182Z,9.83
2016-08-11T06:30:31.665Z,9.8
2016-08-11T06:31:32.558Z,9.98
2016-08-11T06:32:31.789Z,9.91
2016-08-11T06:33:30.013Z,9.97
2016-08-11T06:34:31.614Z,9.94
2016-08-11T06:35:31.466Z,10.1
2016-08-11T06:36:31.024Z,10.22
2016-08-11T06:37:30.500Z,10.2
2016-08-11T06:38:32.162Z,10.12
2016-08-11T06:39:30.180Z,10.2
2016-08-11T06:40:30.929Z,10.17
2016-08-11T06:41:30.923Z,9.97
2016-08-11T06:42:31.446Z,10.23
2016-08-11T06:43:31.140Z,10.4
2016-08-11T06:44:31.216Z,10.34
2016-08-11T06:45:32.686Z,10.64
2016-08-11T06:46:31.510Z,10.82
2016-08-11T06:47:30.783Z,10.71
2016-08-11T06:48:31.300Z,10.59
2016-08-11T06:49:31.418Z,10.54
2016-08-11T06:50:31.190Z,11.08
2016-08-11T06:51:31.717Z,10.87
2016-08-11T06:52:32.049Z,11.11
2016-08-11T06:53:32.525Z,11.08
2016-08-11T06:54:31.573Z,11.07
2016-08-11T06:55:32.907Z,10.99
2016-08-11T06:56:30.834Z,11.04
2016-08-11T06:57:30.930Z,11.22
2016-08-11T06:58:30.387Z,11.35
2016-08-11T06:59:32.212Z,11.81
2016-08-11T07:00:31.685Z,11.44
2016-08-11T07:01:30.589Z,11.6
2016-08-11T07:02:32.214Z,11.26
2016-08-11T07:03:32.027Z,11.91
2016-08-11T07:04:30.922Z,12.29
2016-08-11T07:05:31.752Z,12.02
2016-08-11T07:06:30.638Z,12.04
2016-08-11T07:07:31.694Z,12.54
2016-08-11T07:08:31.492Z,12.76
2016-08-11T07:09:31.382Z,12.75
2016-08-11T07:10:32.484Z,12.57
2016-08-11T07:11:31.484Z,12.64
2016-08-11T07:12:34.094Z,12.25
2016-08-11T07:13:30.788Z,12.39
2016-08-11T07:14:33.758Z,12.76
2016-08-11T07:15:31.931Z,12.83
2016-08-11T07:16:33.143Z,12.54
2016-08-11T07:17:31.908Z,12.6
2016-08-11T07:18:32.852Z,12.9
2016-08-11T07:19:31.741Z,12.85
2016-08-11T07:20:31.343Z,13.23
2016-08-11T07:21:32.044Z,13.75
2016-08-11T07:22:31.410Z,13.92
2016-08-11T07:23:32.329Z,13.39
2016-08-11T07:24:32.915Z,13.5
2016-08-11T07:25:31.142Z,13.68
2016-08-11T07:26:31.855Z,13.37
2016-08-11T07:27:31.695Z,14.4
2016-08-11T07:28:31.909Z,14.33
2016-08-11T07:29:32.290Z,13.9
2016-08-11T07:30:31.544Z,13.35
2016-08-11T07:31:31.807Z,13.09
2016-08-11T07:32:33.298Z,12.87
2016-08-11T07:33:32.249Z,12.75
2016-08-11T07:34:31.941Z,13.71
2016-08-11T07:35:31.591Z,14.28
2016-08-11T07:36:32.582Z,14.73
2016-08-11T07:37:31.778Z,15.03
2016-08-11T07:38:33.092Z,15.19
2016-08-11T07:39:31.914Z,14.82
2016-08-11T07:40:32.674Z,14.7
2016-08-11T07:41:33.085Z,14.89
2016-08-11T07:42:32.199Z,14.79
2016-08-11T07:43:32.569Z,14.72
2016-08-11T07:44:33.062Z,14.32
2016-08-11T07:45:33.010Z,14.3
2016-08-11T07:46:32.922Z,14.05
2016-08-11T07:47:32.538Z,14.28
2016-08-11T07:48:32.509Z,14.97
2016-08-11T07:49:32.341Z,15.1
2016-08-11T07:50:31.929Z,15.18
2016-08-11T07:51:33.142Z,14.99
2016-08-11T07:52:33.893Z,15.65
2016-08-11T07:53:32.036Z,15.97
2016-08-11T07:54:32.722Z,15
2016-08-11T07:55:32.755Z,14.79
2016-08-11T07:56:31.731Z,15.51
2016-08-11T07:57:32.255Z,15.68
2016-08-11T07:58:33.426Z,15.52
2016-08-11T07:59:32.837Z,15.28
2016-08-11T08:00:33.509Z,14.73
2016-08-11T08:01:34.155Z,14.51
2016-08-11T08:02:32.151Z,14.53
2016-08-11T08:03:33.233Z,14.7
2016-08-11T08:04:33.691Z,14.69
2016-08-11T08:05:32.256Z,15.04
2016-08-11T08:06:32.263Z,15.36
2016-08-11T08:07:34.192Z,15.1
2016-08-11T08:08:32.779Z,15.72
2016-08-11T08:09:33.394Z,16.01
2016-08-11T08:10:32.775Z,15.61
2016-08-11T08:11:33.255Z,15.33
2016-08-11T08:12:33.610Z,15.33
2016-08-11T08:13:33.013Z,15.55
2016-08-11T08:14:32.870Z,16.05
2016-08-11T08:15:33.167Z,16.04
2016-08-11T08:16:32.400Z,16.47
2016-08-11T08:17:33.044Z,16.71
2016-08-11T08:18:32.968Z,15.94
2016-08-11T08:19:32.857Z,15.44
2016-08-11T08:20:33.426Z,15.52
2016-08-11T08:21:33.590Z,16.28
2016-08-11T08:22:32.447Z,16.6
2016-08-11T08:23:33.549Z,15.83
2016-08-11T08:24:32.724Z,15.82
2016-08-11T08:25:33.314Z,15.79
2016-08-11T08:26:33.062Z,15.57
2016-08-11T08:27:33.577Z,15.46
2016-08-11T08:28:33.591Z,15.25
2016-08-11T08:29:33.221Z,15.82
2016-08-11T08:30:32.849Z,15.91
2016-08-11T08:31:32.811Z,16.69
2016-08-11T08:32:32.969Z,16.83
2016-08-11T08:33:33.799Z,16.1
2016-08-11T08:34:34.835Z,16.39
2016-08-11T08:35:32.690Z,16.02
2016-08-11T08:36:34.036Z,15.73
2016-08-11T08:37:32.984Z,15.73
2016-08-11T08:38:33.864Z,15.72
2016-08-11T08:39:34.930Z,16
2016-08-11T08:40:33.218Z,16.1
2016-08-11T08:41:33.102Z,16.33
2016-08-11T08:42:34.252Z,16.51
2016-08-11T08:43:34.416Z,15.72
2016-08-11T08:44:33.658Z,16.16
2016-08-11T08:45:33.858Z,16.61
2016-08-11T08:46:33.554Z,16.5
2016-08-11T08:47:33.921Z,16.87
2016-08-11T08:48:33.504Z,16.9
2016-08-11T08:49:35.030Z,17.27
2016-08-11T08:50:35.086Z,16.89
2016-08-11T08:51:34.245Z,17.26
2016-08-11T08:52:34.747Z,16.99
2016-08-11T08:53:34.309Z,16.05
2016-08-11T08:54:34.974Z,16.15
2016-08-11T08:55:33.801Z,16.15
2016-08-11T08:56:33.913Z,16.29
2016-08-11T08:57:34.191Z,16.72
2016-08-11T08:58:34.450Z,16.47
2016-08-11T08:59:34.530Z,16.24
2016-08-11T09:00:34.071Z,16.49
2016-08-11T09:01:33.705Z,16.9
2016-08-11T09:02:33.970Z,16.2
2016-08-11T09:03:34.021Z,16.16
2016-08-11T09:04:34.720Z,15.98
2016-08-11T09:05:34.961Z,15.9
2016-08-11T09:06:34.638Z,15.84
2016-08-11T09:07:33.928Z,15.64
2016-08-11T09:08:34.332Z,16.09
2016-08-11T09:09:34.884Z,16.5
2016-08-11T09:10:34.701Z,15.91
2016-08-11T09:11:33.635Z,16.01
2016-08-11T09:12:34.567Z,15.9
2016-08-11T09:13:34.743Z,15.84
2016-08-11T09:14:35.883Z,16.23
2016-08-11T09:15:34.373Z,15.76
2016-08-11T09:16:34.364Z,15.75
2016-08-11T09:17:35.025Z,15.86
2016-08-11T09:18:33.999Z,16.12
2016-08-11T09:19:36.224Z,16.2
2016-08-11T09:20:34.783Z,16.47
2016-08-11T09:21:36.200Z,16.28
2016-08-11T09:22:35.359Z,16.84
2016-08-11T09:23:34.240Z,16.39
2016-08-11T09:24:35.427Z,16.01
2016-08-11T09:25:34.340Z,16.61
2016-08-11T09:26:35.132Z,16.5
2016-08-11T09:27:34.257Z,16.96
2016-08-11T09:28:35.288Z,16.84
2016-08-11T09:30:35.253Z,16.46
2016-08-11T09:31:35.604Z,16.69
2016-08-11T09:32:34.385Z,17.14
2016-08-11T09:33:34.881Z,16.79
2016-08-11T09:34:35.232Z,16.83
2016-08-11T09:35:36.124Z,16.93
2016-08-11T09:36:34.776Z,17.31
2016-08-11T09:37:35.704Z,17.7
2016-08-11T09:38:35.406Z,17.76
2016-08-11T09:39:34.865Z,17.79
2016-08-11T09:40:35.873Z,17.74
2016-08-11T09:41:35.775Z,17.79
2016-08-11T09:42:34.594Z,18.25
2016-08-11T09:43:35.972Z,18.31
2016-08-11T09:45:35.931Z,19.09
2016-08-11T09:46:35.500Z,19.73
2016-08-11T09:47:38.208Z,19.36
2016-08-11T09:48:36.076Z,18.65
2016-08-11T09:49:35.870Z,18.47
2016-08-11T09:50:35.391Z,19.07
2016-08-11T09:51:35.843Z,19.21
2016-08-11T09:52:36.605Z,19.54
2016-08-11T09:53:35.846Z,19.19
2016-08-11T09:54:36.058Z,18.56
2016-08-11T09:55:35.022Z,18.47
2016-08-11T09:56:36.408Z,18.26
2016-08-11T09:57:35.765Z,18.03
2016-08-11T09:58:36.356Z,17.72
2016-08-11T10:00:35.616Z,16.69
2016-08-11T10:01:36.989Z,17.38
2016-08-11T10:02:35.935Z,17.78
2016-08-11T10:03:36.455Z,17.09
2016-08-11T10:04:36.965Z,16.91
2016-08-11T10:05:36.544Z,16.94
2016-08-11T10:06:35.861Z,17.22
2016-08-11T10:07:37.090Z,17.34
2016-08-11T10:08:36.511Z,17.36
2016-08-11T10:09:36.682Z,17.23
2016-08-11T10:10:36.569Z,17.11
2016-08-11T10:11:35.853Z,17.6
2016-08-11T10:12:35.823Z,17.22
2016-08-11T10:13:35.850Z,16.69
2016-08-11T10:15:35.913Z,17.63
2016-08-11T10:16:36.344Z,17.22
2016-08-11T10:17:36.619Z,17.56
2016-08-11T10:18:36.962Z,18.1
2016-08-11T10:19:36.032Z,18.41
2016-08-11T10:20:36.308Z,18.44
2016-08-11T10:21:36.107Z,18.23
2016-08-11T10:22:37.460Z,18.37
2016-08-11T10:23:37.788Z,18.47
2016-08-11T10:24:36.706Z,18.88
2016-08-11T10:25:37.975Z,19.37
2016-08-11T10:26:38.326Z,19.26
2016-08-11T10:27:36.640Z,18.88
2016-08-11T10:28:37.211Z,19.31
2016-08-11T10:30:38.249Z,20.13
2016-08-11T10:31:37.779Z,19.92
2016-08-11T10:32:36.392Z,20.1
2016-08-11T10:33:37.145Z,19.81
2016-08-11T10:34:37.456Z,19.74
2016-08-11T10:35:37.414Z,19.04
2016-08-11T10:36:37.396Z,19.21
2016-08-11T10:37:36.472Z,18.44
2016-08-11T10:38:36.545Z,18.1
2016-08-11T10:39:36.893Z,17.68
2016-08-11T10:40:36.985Z,17.82
2016-08-11T10:41:36.375Z,18.23
2016-08-11T10:42:36.785Z,18.34
2016-08-11T10:43:39.367Z,17.98
2016-08-11T10:45:38.709Z,18.37
2016-08-11T10:46:37.076Z,18.1
2016-08-11T10:47:36.722Z,18.83
2016-08-11T10:48:36.733Z,19.16
2016-08-11T10:49:37.132Z,19.56
2016-08-11T10:50:38.477Z,19.54
2016-08-11T10:51:38.767Z,19.34
2016-08-11T10:52:37.072Z,18.92
2016-08-11T10:53:37.015Z,19.44
2016-08-11T10:54:38.362Z,19.52
2016-08-11T10:55:37.037Z,19.26
2016-08-11T10:56:36.833Z,18.93
2016-08-11T10:57:38.182Z,19.19
2016-08-11T10:58:38.242Z,18.77
2016-08-11T10:59:36.969Z,18.4
2016-08-11T11:00:38.018Z,19.04
2016-08-11T11:01:38.182Z,18.63
2016-08-11T11:02:37.959Z,18.71
2016-08-11T11:03:37.869Z,19.39
2016-08-11T11:04:37.751Z,18.34
2016-08-11T11:05:38.100Z,17.98
2016-08-11T11:06:38.334Z,18.07
2016-08-11T11:07:38.177Z,18.15
2016-08-11T11:08:38.302Z,19.18
2016-08-11T11:09:37.620Z,19.47
2016-08-11T11:10:37.431Z,19.55
2016-08-11T11:11:38.994Z,19.62
2016-08-11T11:12:38.231Z,19.51
2016-08-11T11:13:38.348Z,19.66
2016-08-11T11:14:37.531Z,19.79
2016-08-11T11:15:38.365Z,19.37
2016-08-11T11:16:37.591Z,19.27
2016-08-11T11:17:38.789Z,18.86
2016-08-11T11:18:38.824Z,20.03
2016-08-11T11:19:38.496Z,19.84
2016-08-11T11:20:37.947Z,19.18
2016-08-11T11:21:39.403Z,18.63
2016-08-11T11:22:37.950Z,18.4
2016-08-11T11:23:38.740Z,18.1
2016-08-11T11:24:37.876Z,18.4
2016-08-11T11:25:38.136Z,18.38
2016-08-11T11:26:38.863Z,18.2
2016-08-11T11:27:38.204Z,18.19
2016-08-11T11:28:38.464Z,18.98
2016-08-11T11:29:38.924Z,18.63
2016-08-11T11:30:38.534Z,18.04
2016-08-11T11:31:39.407Z,18.34
2016-08-11T11:32:38.392Z,18.68
2016-08-11T11:33:38.232Z,18.2
2016-08-11T11:34:38.057Z,18.13
2016-08-11T11:35:38.104Z,17.85
2016-08-11T11:36:39.157Z,18.81
2016-08-11T11:37:38.333Z,19.24
2016-08-11T11:38:39.787Z,19.11
2016-08-11T11:39:38.997Z,19.47
2016-08-11T11:40:38.789Z,18.74
2016-08-11T11:41:38.699Z,18.7
2016-08-11T11:42:40.420Z,19.09
2016-08-11T11:43:38.251Z,18.28
2016-08-11T11:44:38.854Z,18.31
2016-08-11T11:45:39.537Z,18.34
2016-08-11T11:46:39.285Z,18.47
2016-08-11T11:47:38.889Z,18.86
2016-08-11T11:48:39.927Z,19.16
2016-08-11T11:49:39.852Z,19.16
2016-08-11T11:50:39.566Z,18.89
2016-08-11T11:51:39.683Z,18.81
2016-08-11T11:52:39.715Z,18.95
2016-08-11T11:53:38.949Z,19.18
2016-08-11T11:54:40.548Z,18.8
2016-08-11T11:55:38.861Z,18.9
2016-08-11T11:56:40.531Z,18.63
2016-08-11T11:57:39.170Z,19.21
2016-08-11T11:58:40.546Z,19.21
2016-08-11T11:59:39.586Z,18.56
2016-08-11T12:00:39.493Z,18.9
2016-08-11T12:01:39.873Z,18.75
2016-08-11T12:02:40.244Z,18.62
2016-08-11T12:03:39.013Z,19.4
2016-08-11T12:04:39.542Z,19.73
2016-08-11T12:05:39.919Z,20.19
2016-08-11T12:06:40.433Z,19.59
2016-08-11T12:07:39.685Z,19.14
2016-08-11T12:08:39.152Z,18.77
2016-08-11T12:09:41.772Z,19.27
2016-08-11T12:10:39.609Z,19.44
2016-08-11T12:11:40.641Z,19.84
2016-08-11T12:12:40.961Z,20.1
2016-08-11T12:13:39.199Z,19.7
2016-08-11T12:14:39.665Z,19.96
2016-08-11T12:15:42.111Z,19.85
2016-08-11T12:16:39.540Z,20.72
2016-08-11T12:17:40.938Z,20.1
2016-08-11T12:18:40.863Z,19.02
2016-08-11T12:19:41.124Z,19.76
2016-08-11T12:20:39.469Z,19.69
2016-08-11T12:21:39.802Z,19.85
2016-08-11T12:22:40.768Z,19.48
2016-08-11T12:23:40.718Z,20.39
2016-08-11T12:24:41.171Z,20.85
2016-08-11T12:25:40.449Z,20.37
2016-08-11T12:26:41.674Z,20.81
2016-08-11T12:27:40.994Z,20.87
2016-08-11T12:28:41.874Z,20.28
2016-08-11T12:29:41.046Z,19.76
2016-08-11T12:30:41.107Z,19.39
2016-08-11T12:31:40.776Z,19.04
2016-08-11T12:32:40.690Z,19.26
2016-08-11T12:33:40.934Z,19.4
2016-08-11T12:34:39.775Z,18.86
2016-08-11T12:35:41.183Z,18.89
2016-08-11T12:36:41.206Z,19.26
2016-08-11T12:37:40.916Z,18.9
2016-08-11T12:38:39.862Z,19.15
2016-08-11T12:39:41.114Z,18.92
2016-08-11T12:40:41.188Z,18.88
2016-08-11T12:41:40.127Z,18.78
2016-08-11T12:42:41.262Z,19.47
2016-08-11T12:43:41.146Z,20.41
2016-08-11T12:44:40.117Z,20.72
2016-08-11T12:45:41.635Z,21.39
2016-08-11T12:46:43.418Z,20.75
2016-08-11T12:47:40.687Z,21.18
2016-08-11T12:48:40.594Z,20.75
2016-08-11T12:49:42.531Z,21.61
2016-08-11T12:50:40.656Z,20.99
2016-08-11T12:51:41.548Z,21.66
2016-08-11T12:52:40.695Z,20.51
2016-08-11T12:53:40.852Z,20.6
2016-08-11T12:54:44.183Z,20.75
2016-08-11T12:55:40.477Z,20.07
2016-08-11T12:56:42.050Z,20.21
2016-08-11T12:57:42.411Z,20.92
2016-08-11T12:58:41.121Z,20.62
2016-08-11T12:59:41.296Z,20.51
2016-08-11T13:00:41.703Z,21
2016-08-11T13:01:41.037Z,20.92
2016-08-11T13:02:42.310Z,20.95
2016-08-11T13:03:41.936Z,20.93
2016-08-11T13:04:40.981Z,20.92
2016-08-11T13:05:41.045Z,20.11
2016-08-11T13:06:41.728Z,20.28
2016-08-11T13:07:42.314Z,19.84
2016-08-11T13:08:41.845Z,20.56
2016-08-11T13:09:41.019Z,20.85
2016-08-11T13:10:40.852Z,20.82
2016-08-11T13:11:42.408Z,20.14
2016-08-11T13:12:43.901Z,20.19
2016-08-11T13:13:42.655Z,20.13
2016-08-11T13:14:42.934Z,20.43
2016-08-11T13:15:43.308Z,20.58
2016-08-11T13:16:41.861Z,20.26
2016-08-11T13:17:41.224Z,20.67
2016-08-11T13:18:42.191Z,20.47
2016-08-11T13:19:42.182Z,20.39
2016-08-11T13:20:43.913Z,20.55